createdAt,value
2019-01-05T00:02:13.092Z,93.90
2019-01-05T00:04:43.333Z,93.60
2019-01-05T00:07:16.446Z,93.40
2019-01-05T00:10:03.331Z,93.40
2019-01-05T00:12:33.560Z,93.30
2019-01-05T00:15:07.143Z,94.10
2019-01-05T00:17:40.741Z,93.70
2019-01-05T00:20:27.335Z,93.60
2019-01-05T00:22:58.426Z,93.90
2019-01-05T00:25:40.945Z,93.70
2019-01-05T00:28:28.528Z,94.20
2019-01-05T00:31:01.679Z,94.60
2019-01-05T00:33:45.319Z,94.30
2019-01-05T00:36:32.681Z,94.80
2019-01-05T00:39:16.078Z,94.70
2019-01-05T00:41:58.822Z,94.50
2019-01-05T00:44:32.614Z,94.50
2019-01-05T00:47:07.466Z,94.70
2019-01-05T00:49:38.474Z,94.70
2019-01-05T00:52:11.659Z,94.90
2019-01-05T00:54:45.414Z,94.70
2019-01-05T00:57:25.534Z,94.90
2019-01-05T00:59:56.130Z,94.70
2019-01-05T01:02:35.378Z,95.10
2019-01-05T01:05:11.658Z,95.30
2019-01-05T01:07:45.058Z,95.20
2019-01-05T01:10:23.874Z,95.30
2019-01-05T01:12:59.890Z,95.30
2019-01-05T01:15:36.078Z,95.20
2019-01-05T01:18:21.530Z,95.40
2019-01-05T01:21:04.702Z,95.60
2019-01-05T01:23:50.478Z,95.40
2019-01-05T01:26:21.140Z,95.80
2019-01-05T01:28:51.918Z,95.90
2019-01-05T01:31:24.694Z,95.50
2019-01-05T01:33:57.915Z,95.60
2019-01-05T01:36:37.002Z,95.40
2019-01-05T01:39:07.992Z,95.40
2019-01-05T01:41:38.752Z,95.30
2019-01-05T01:44:09.674Z,95.00
2019-01-05T01:46:56.594Z,95.10
2019-01-05T01:49:42.563Z,95.00
2019-01-05T01:52:25.086Z,94.90
2019-01-05T01:55:04.619Z,94.30
2019-01-05T01:57:42.945Z,94.50
2019-01-05T02:00:30.102Z,94.90
2019-01-05T02:03:12.876Z,94.70
2019-01-05T02:06:01.740Z,94.30
2019-01-05T02:08:43.686Z,94.30
2019-01-05T02:11:22.776Z,94.70
2019-01-05T02:14:05.179Z,94.90
2019-01-05T02:16:54.200Z,95.20
2019-01-05T02:19:43.475Z,95.30
2019-01-05T02:22:34.763Z,95.00
2019-01-05T02:25:22.658Z,94.80
2019-01-05T02:28:21.118Z,94.70
2019-01-05T02:31:02.577Z,95.20
2019-01-05T02:33:57.027Z,94.60
2019-01-05T02:36:50.047Z,94.40
2019-01-05T02:39:47.382Z,94.20
2019-01-05T02:42:31.955Z,94.20
2019-01-05T02:45:36.869Z,94.20
2019-01-05T02:48:47.427Z,94.30
2019-01-05T02:51:53.477Z,93.90
2019-01-05T02:54:58.603Z,94.10
2019-01-05T02:57:46.570Z,94.00
2019-01-05T03:00:37.807Z,94.10
2019-01-05T03:03:42.483Z,93.90
2019-01-05T03:06:45.632Z,94.20
2019-01-05T03:10:04.051Z,94.40
2019-01-05T03:12:58.362Z,94.20
2019-01-05T03:16:12.625Z,94.00
2019-01-05T03:18:54.646Z,94.00
2019-01-05T03:21:42.605Z,94.10
2019-01-05T03:24:47.655Z,94.50
2019-01-05T03:27:23.551Z,94.60
2019-01-05T03:30:16.345Z,94.60
2019-01-05T03:33:04.715Z,94.30
2019-01-05T03:36:09.751Z,94.80
2019-01-05T03:39:03.588Z,95.20
2019-01-05T03:42:20.701Z,95.10
2019-01-05T03:45:24.027Z,95.30
2019-01-05T03:48:11.526Z,95.10
2019-01-05T03:51:05.830Z,95.30
2019-01-05T03:54:00.247Z,95.10
2019-01-05T03:57:00.918Z,95.20
2019-01-05T03:59:59.732Z,95.60
2019-01-05T04:02:51.251Z,95.50
2019-01-05T04:05:48.686Z,95.60
2019-01-05T04:09:11.580Z,95.70
2019-01-05T04:12:12.042Z,95.40
2019-01-05T04:14:53.708Z,95.80
2019-01-05T04:18:06.386Z,96.10
2019-01-05T04:21:21.413Z,95.90
2019-01-05T04:24:23.329Z,96.10
2019-01-05T04:27:20.985Z,96.10
2019-01-05T04:30:18.278Z,95.70
2019-01-05T04:33:17.371Z,95.80
2019-01-05T04:36:07.128Z,95.70
2019-01-05T04:39:03.287Z,95.80
2019-01-05T04:41:54.568Z,95.70
2019-01-05T04:45:06.039Z,95.80
2019-01-05T04:48:30.983Z,95.40
2019-01-05T04:51:24.613Z,95.80
2019-01-05T04:54:29.979Z,95.80
2019-01-05T04:57:27.266Z,96.00
2019-01-05T05:00:33.454Z,96.10
2019-01-05T05:03:12.309Z,96.00
2019-01-05T05:05:57.563Z,96.10
2019-01-05T05:08:44.924Z,96.10
2019-01-05T05:11:47.297Z,95.80
2019-01-05T05:14:39.860Z,96.00
2019-01-05T05:17:31.039Z,96.10
2019-01-05T05:20:54.444Z,95.90
2019-01-05T05:23:55.825Z,96.00
2019-01-05T05:26:34.934Z,96.30
2019-01-05T05:29:29.295Z,96.60
2019-01-05T05:32:25.298Z,96.30
2019-01-05T05:35:22.371Z,96.60
2019-01-05T05:38:33.016Z,96.00
2019-01-05T05:41:33.393Z,96.40
2019-01-05T05:44:50.987Z,96.30
2019-01-05T05:47:48.281Z,96.30
2019-01-05T05:50:58.835Z,96.20
2019-01-05T05:54:09.715Z,96.40
2019-01-05T05:57:18.841Z,96.20
2019-01-05T06:00:21.345Z,96.20
2019-01-05T06:03:27.975Z,96.50
2019-01-05T06:06:46.357Z,96.40
2019-01-05T06:09:42.089Z,96.20
2019-01-05T06:13:05.095Z,96.20
2019-01-05T06:16:02.711Z,96.40
2019-01-05T06:18:55.087Z,96.60
2019-01-05T06:21:54.823Z,96.60
2019-01-05T06:24:56.163Z,96.50
2019-01-05T06:28:03.861Z,96.70
2019-01-05T06:30:55.049Z,96.90
2019-01-05T06:33:47.208Z,96.90
2019-01-05T06:36:40.947Z,96.70
2019-01-05T06:39:33.681Z,96.70
2019-01-05T06:42:29.192Z,96.80
2019-01-05T06:45:23.161Z,96.90
2019-01-05T06:48:05.209Z,96.80
2019-01-05T06:51:08.577Z,96.70
2019-01-05T06:53:53.716Z,96.70
2019-01-05T06:56:44.783Z,96.80
2019-01-05T06:59:34.541Z,97.10
2019-01-05T07:02:29.135Z,96.90
2019-01-05T07:05:33.777Z,96.80
2019-01-05T07:08:09.655Z,96.90
2019-01-05T07:11:03.857Z,97.20
2019-01-05T07:14:00.665Z,97.00
2019-01-05T07:16:50.203Z,97.20
2019-01-05T07:19:35.129Z,97.20
2019-01-05T07:22:46.363Z,97.10
2019-01-05T07:25:49.658Z,97.00
2019-01-05T07:29:14.183Z,96.80
2019-01-05T07:31:50.269Z,97.20
2019-01-05T07:34:28.845Z,97.20
2019-01-05T07:37:28.453Z,97.10
2019-01-05T07:40:19.707Z,97.10
2019-01-05T07:43:27.189Z,97.40
2019-01-05T07:46:43.190Z,97.70
2019-01-05T07:49:52.881Z,97.90
2019-01-05T07:53:01.474Z,97.60
2019-01-05T07:55:57.083Z,97.70
2019-01-05T07:59:00.487Z,97.80
2019-01-05T08:02:12.938Z,97.40
2019-01-05T08:05:16.405Z,97.60
2019-01-05T08:08:27.630Z,97.60
2019-01-05T08:11:22.169Z,98.00
2019-01-05T08:14:15.347Z,97.80
2019-01-05T08:17:34.061Z,98.10
2019-01-05T08:20:43.748Z,97.80
2019-01-05T08:24:01.102Z,97.80
2019-01-05T08:26:55.831Z,97.70
2019-01-05T08:30:19.428Z,97.90
2019-01-05T08:33:14.809Z,97.80
2019-01-05T08:36:24.560Z,98.10
2019-01-05T08:39:06.457Z,98.40
2019-01-05T08:42:00.194Z,98.40
2019-01-05T08:44:48.331Z,98.20
2019-01-05T08:47:47.421Z,98.10
2019-01-05T08:50:40.079Z,97.90
2019-01-05T08:53:51.283Z,98.40
2019-01-05T08:56:57.589Z,98.20
2019-01-05T09:00:11.465Z,98.10
2019-01-05T09:03:20.185Z,98.10
2019-01-05T09:06:39.909Z,98.10
2019-01-05T09:09:18.745Z,98.10
2019-01-05T09:11:54.969Z,98.00
2019-01-05T09:15:10.857Z,97.90
2019-01-05T09:18:13.273Z,98.10
2019-01-05T09:21:15.034Z,98.00
2019-01-05T09:24:18.709Z,97.90
2019-01-05T09:26:57.418Z,97.70
2019-01-05T09:29:57.897Z,97.70
2019-01-05T09:32:53.609Z,97.60
2019-01-05T09:35:53.949Z,97.60
2019-01-05T09:38:49.139Z,97.70
2019-01-05T09:41:34.441Z,98.00
2019-01-05T09:44:33.528Z,97.80
2019-01-05T09:47:21.485Z,97.60
2019-01-05T09:50:48.547Z,97.70
2019-01-05T09:53:55.059Z,97.40
2019-01-05T09:56:40.473Z,97.20
2019-01-05T09:59:36.151Z,97.20
2019-01-05T10:02:37.149Z,97.20
2019-01-05T10:05:39.359Z,97.40
2019-01-05T10:08:48.549Z,97.50
2019-01-05T10:12:00.918Z,97.60
2019-01-05T10:15:00.683Z,97.30
2019-01-05T10:17:39.827Z,97.20
2019-01-05T10:20:30.849Z,97.30
2019-01-05T10:23:04.145Z,97.30
2019-01-05T10:25:45.662Z,97.50
2019-01-05T10:28:48.967Z,97.60
2019-01-05T10:32:12.142Z,97.40
2019-01-05T10:35:04.534Z,97.10
2019-01-05T10:38:08.406Z,97.00
2019-01-05T10:40:59.550Z,97.10
2019-01-05T10:43:41.913Z,97.00
2019-01-05T10:46:53.345Z,97.10
2019-01-05T10:49:32.422Z,97.10
2019-01-05T10:52:34.286Z,97.20
2019-01-05T10:55:34.282Z,97.40
2019-01-05T10:58:28.706Z,97.10
2019-01-05T11:01:29.130Z,96.90
2019-01-05T11:04:11.478Z,96.70
2019-01-05T11:07:34.888Z,96.70
2019-01-05T11:10:29.510Z,96.60
2019-01-05T11:13:38.235Z,96.40
2019-01-05T11:16:40.120Z,96.10
2019-01-05T11:19:37.541Z,95.90
2019-01-05T11:22:54.135Z,95.60
2019-01-05T11:26:04.819Z,95.50
2019-01-05T11:28:38.122Z,95.60
2019-01-05T11:31:47.742Z,95.50
2019-01-05T11:34:37.814Z,95.20
2019-01-05T11:37:30.673Z,95.20
2019-01-05T11:40:33.462Z,95.30
2019-01-05T11:43:12.927Z,95.60
2019-01-05T11:46:06.834Z,94.70
2019-01-05T11:49:11.390Z,94.00
2019-01-05T11:52:08.195Z,94.20
2019-01-05T11:55:27.603Z,94.50
2019-01-05T11:58:18.821Z,94.50
2019-01-05T12:01:19.783Z,93.60
2019-01-05T12:04:05.059Z,93.20
2019-01-05T12:07:26.561Z,93.20
2019-01-05T12:10:26.878Z,93.60
2019-01-05T12:13:26.896Z,93.60
2019-01-05T12:16:27.262Z,94.00
2019-01-05T12:19:23.026Z,94.00
2019-01-05T12:22:29.906Z,94.10
2019-01-05T12:25:33.065Z,93.90
2019-01-05T12:28:59.238Z,93.30
2019-01-05T12:32:15.885Z,93.10
2019-01-05T12:35:24.058Z,92.90
2019-01-05T12:38:12.001Z,93.30
2019-01-05T12:41:06.901Z,93.00
2019-01-05T12:44:21.326Z,93.50
2019-01-05T12:47:11.750Z,93.20
2019-01-05T12:49:50.973Z,92.70
2019-01-05T12:52:30.020Z,92.40
2019-01-05T12:55:11.602Z,93.00
2019-01-05T12:58:05.936Z,93.00
2019-01-05T13:00:54.098Z,93.20
2019-01-05T13:03:45.319Z,92.90
2019-01-05T13:06:51.921Z,92.50
2019-01-05T13:09:47.758Z,92.50
2019-01-05T13:12:51.065Z,92.60
2019-01-05T13:16:05.185Z,92.50
2019-01-05T13:19:13.022Z,92.60
2019-01-05T13:22:07.240Z,92.60
2019-01-05T13:25:05.902Z,92.90
2019-01-05T13:27:51.330Z,92.90
2019-01-05T13:30:42.590Z,92.70
2019-01-05T13:33:56.342Z,92.20
2019-01-05T13:37:17.586Z,92.30
2019-01-05T13:40:03.026Z,92.50
2019-01-05T13:43:02.062Z,92.30
2019-01-05T13:46:03.894Z,92.20
2019-01-05T13:49:01.237Z,92.20
2019-01-05T13:51:49.819Z,91.60
2019-01-05T13:54:23.003Z,92.10
2019-01-05T13:56:55.926Z,92.20
2019-01-05T13:59:35.174Z,92.20
2019-01-05T14:02:17.147Z,92.50
2019-01-05T14:04:59.212Z,92.20
2019-01-05T14:07:45.350Z,92.50
2019-01-05T14:10:18.446Z,92.60
2019-01-05T14:12:48.594Z,92.80
2019-01-05T14:15:35.366Z,92.60
2019-01-05T14:18:11.288Z,92.20
2019-01-05T14:20:44.256Z,92.70
2019-01-05T14:23:30.766Z,92.40
2019-01-05T14:26:03.754Z,92.40
2019-01-05T14:28:33.977Z,92.20
2019-01-05T14:31:06.678Z,92.40
2019-01-05T14:33:39.820Z,92.60
2019-01-05T14:36:26.118Z,92.80
2019-01-05T14:39:11.618Z,92.60
2019-01-05T14:41:50.916Z,92.80
2019-01-05T14:44:39.364Z,92.90
2019-01-05T14:47:15.398Z,92.80
2019-01-05T14:49:45.548Z,92.80
2019-01-05T14:52:15.800Z,92.90
2019-01-05T14:55:02.351Z,92.70
2019-01-05T14:57:38.585Z,92.60
2019-01-05T15:00:28.162Z,92.70
2019-01-05T15:03:13.758Z,93.00
2019-01-05T15:05:50.242Z,93.10
2019-01-05T15:08:35.798Z,92.80
2019-01-05T15:11:14.634Z,93.00
2019-01-05T15:13:47.626Z,92.80
2019-01-05T15:16:20.829Z,93.10
2019-01-05T15:18:56.786Z,93.20
2019-01-05T15:21:26.998Z,93.00
2019-01-05T15:24:03.467Z,93.50
2019-01-05T15:26:42.622Z,93.10
2019-01-05T15:29:12.886Z,93.00
2019-01-05T15:31:43.106Z,92.70
2019-01-05T15:34:13.352Z,92.60
2019-01-05T15:37:00.275Z,92.70
2019-01-05T15:39:36.431Z,92.30
2019-01-05T15:42:12.545Z,92.50
2019-01-05T15:44:45.521Z,92.90
2019-01-05T15:47:30.822Z,93.10
2019-01-05T15:50:00.994Z,92.70
2019-01-05T15:52:40.218Z,92.60
2019-01-05T15:55:10.471Z,92.60
2019-01-05T15:57:46.450Z,92.60
2019-01-05T16:00:33.117Z,92.60
2019-01-05T16:03:25.337Z,92.50
2019-01-05T16:06:11.755Z,92.50
2019-01-05T16:08:53.650Z,92.50
2019-01-05T16:11:33.042Z,92.50
2019-01-05T16:14:03.189Z,92.60
2019-01-05T16:16:42.043Z,92.50
2019-01-05T16:19:28.645Z,92.30
2019-01-05T16:22:01.954Z,92.80
2019-01-05T16:24:46.891Z,92.80
2019-01-05T16:27:23.107Z,92.70
2019-01-05T16:29:53.260Z,92.80
2019-01-05T16:32:26.182Z,92.80
2019-01-05T16:35:13.205Z,92.80
2019-01-05T16:37:43.502Z,92.90
2019-01-05T16:40:25.550Z,93.10
2019-01-05T16:43:01.646Z,92.90
2019-01-05T16:45:31.858Z,92.70
2019-01-05T16:48:14.205Z,92.60
2019-01-05T16:56:15.065Z,92.80
2019-01-05T16:58:54.490Z,93.50
2019-01-05T17:01:41.367Z,93.30
2019-01-05T17:04:11.514Z,93.60
2019-01-05T17:06:44.746Z,93.30
2019-01-05T17:09:31.757Z,93.60
2019-01-05T17:12:19.749Z,93.60
2019-01-05T17:14:52.419Z,93.00
2019-01-05T17:17:22.654Z,93.40
2019-01-05T17:19:58.987Z,93.50
2019-01-05T17:22:38.520Z,93.60
2019-01-05T17:25:25.280Z,93.60
2019-01-05T17:27:55.529Z,93.80
2019-01-05T17:30:28.764Z,93.80
2019-01-05T17:33:15.305Z,93.70
2019-01-05T17:36:01.749Z,93.70
2019-01-05T17:38:32.003Z,93.50
2019-01-05T17:41:02.240Z,93.50
2019-01-05T17:43:38.609Z,93.70
2019-01-05T17:46:08.763Z,93.70
2019-01-05T17:48:44.794Z,93.80
2019-01-05T17:51:20.795Z,93.90
2019-01-05T17:53:50.982Z,93.60
2019-01-05T17:56:27.206Z,94.00
2019-01-05T17:58:57.449Z,93.60
2019-01-05T18:01:44.154Z,93.30
2019-01-05T18:04:30.677Z,93.00
2019-01-05T18:07:10.170Z,93.30
2019-01-05T18:09:56.626Z,93.70
2019-01-05T18:12:45.238Z,93.10
2019-01-05T18:15:21.359Z,93.30
2019-01-05T18:18:03.822Z,93.50
2019-01-05T18:20:50.094Z,93.20
2019-01-05T18:23:36.357Z,93.10
2019-01-05T18:26:09.308Z,93.20
2019-01-05T18:28:55.887Z,92.80
2019-01-05T18:31:41.590Z,92.60
2019-01-05T18:34:17.848Z,92.60
2019-01-05T18:36:59.926Z,92.90
2019-01-05T18:39:46.307Z,92.60
2019-01-05T18:42:28.586Z,92.30
2019-01-05T18:45:15.080Z,92.80
2019-01-05T18:47:47.790Z,92.60
2019-01-05T18:50:35.906Z,92.90
2019-01-05T18:53:09.081Z,92.50
2019-01-05T18:58:32.633Z,93.30
2019-01-05T19:01:08.728Z,92.90
2019-01-05T19:03:41.798Z,93.70
2019-01-05T19:06:17.796Z,92.60
2019-01-05T19:08:50.612Z,93.30
2019-01-05T19:11:23.781Z,93.30
2019-01-05T19:13:59.761Z,93.20
2019-01-05T19:16:46.444Z,92.80
2019-01-05T19:19:19.132Z,93.40
2019-01-05T19:21:52.163Z,92.70
2019-01-05T19:24:28.106Z,93.10
2019-01-05T19:27:10.404Z,92.70
2019-01-05T19:29:58.689Z,92.40
2019-01-05T19:32:38.201Z,92.90
2019-01-05T19:35:17.191Z,92.30
2019-01-05T19:38:03.718Z,92.70
2019-01-05T19:40:50.605Z,92.50
2019-01-05T19:43:37.152Z,92.60
2019-01-05T19:46:13.145Z,93.10
2019-01-05T19:48:43.411Z,92.10
2019-01-05T19:51:16.605Z,92.00
2019-01-05T19:53:49.737Z,92.80
2019-01-05T19:56:36.323Z,92.50
2019-01-05T19:59:15.794Z,92.80
2019-01-05T20:01:55.117Z,92.00
2019-01-05T20:04:40.661Z,92.10
2019-01-05T20:07:10.875Z,92.60
2019-01-05T20:09:46.628Z,92.20
2019-01-05T20:12:28.929Z,92.20
2019-01-05T20:15:14.095Z,92.90
2019-01-05T20:17:53.149Z,92.40
2019-01-05T20:20:36.321Z,92.80
2019-01-05T20:23:17.119Z,93.00
2019-01-05T20:25:53.364Z,93.00
2019-01-05T20:28:40.023Z,92.80
2019-01-05T20:31:13.089Z,92.00
2019-01-05T20:33:46.190Z,92.00
2019-01-05T20:36:19.451Z,92.40
2019-01-05T20:39:08.089Z,92.20
2019-01-05T20:41:38.330Z,91.80
2019-01-05T20:44:24.790Z,91.90
2019-01-05T20:47:11.246Z,92.00
2019-01-05T20:49:43.975Z,92.10
2019-01-05T20:52:14.234Z,91.70
2019-01-05T20:54:47.419Z,91.30
2019-01-05T20:57:17.667Z,91.80
2019-01-05T20:59:59.793Z,91.70
2019-01-05T21:02:44.914Z,91.30
2019-01-05T21:05:28.223Z,91.50
2019-01-05T21:08:07.243Z,91.40
2019-01-05T21:10:43.139Z,91.00
2019-01-05T21:13:29.905Z,91.80
2019-01-05T21:16:00.119Z,92.10
2019-01-05T21:18:33.083Z,91.50
2019-01-05T21:21:03.306Z,91.70
2019-01-05T21:23:45.756Z,91.90
2019-01-05T21:26:32.510Z,90.70
2019-01-05T21:29:05.463Z,91.20
2019-01-05T21:31:51.961Z,91.10
2019-01-05T21:34:28.418Z,90.80
2019-01-05T21:37:07.649Z,90.20
2019-01-05T21:39:43.742Z,90.80
2019-01-05T21:42:19.753Z,90.70
2019-01-05T21:45:05.019Z,90.30
2019-01-05T21:47:38.223Z,90.70
2019-01-05T21:50:08.828Z,91.00
2019-01-05T21:52:42.156Z,89.60
2019-01-05T21:55:18.170Z,90.90
2019-01-05T21:57:48.387Z,90.70
2019-01-05T22:00:34.862Z,90.90
2019-01-05T22:03:05.101Z,90.70
2019-01-05T22:05:35.355Z,90.60
2019-01-05T22:08:05.651Z,90.20
2019-01-05T22:10:44.926Z,90.90
2019-01-05T22:13:18.171Z,90.50
2019-01-05T22:16:04.743Z,90.60
2019-01-05T22:18:53.377Z,90.70
2019-01-05T22:21:38.707Z,90.30
2019-01-05T22:24:21.168Z,90.30
2019-01-05T22:27:07.649Z,90.00
2019-01-05T22:29:54.310Z,90.40
2019-01-05T22:32:36.297Z,89.30
2019-01-05T22:35:13.061Z,90.00
2019-01-05T22:37:43.320Z,89.60
2019-01-05T22:40:28.750Z,90.60
2019-01-05T22:43:15.319Z,90.30
2019-01-05T22:45:48.473Z,90.10
2019-01-05T22:48:27.762Z,90.40
2019-01-05T22:51:14.105Z,90.50
2019-01-05T22:53:44.355Z,90.00
2019-01-05T22:56:30.814Z,90.10
2019-01-05T22:59:10.195Z,90.30
2019-01-05T23:01:42.933Z,91.00
2019-01-05T23:04:28.559Z,90.60
2019-01-05T23:07:01.763Z,90.50
2019-01-05T23:09:32.028Z,89.50
2019-01-05T23:12:05.425Z,89.60
2019-01-05T23:14:44.359Z,89.70
2019-01-05T23:17:31.070Z,89.80
2019-01-05T23:20:17.526Z,89.60
2019-01-05T23:22:59.557Z,89.40
2019-01-05T23:25:38.826Z,90.30
2019-01-05T23:28:27.429Z,88.60
2019-01-05T23:31:16.076Z,89.40
2019-01-05T23:34:02.698Z,89.10
2019-01-05T23:36:49.165Z,89.00
2019-01-05T23:39:31.718Z,88.70
2019-01-05T23:42:01.962Z,89.70
2019-01-05T23:44:48.354Z,89.30
2019-01-05T23:47:24.343Z,88.80
2019-01-05T23:49:54.617Z,88.80
2019-01-05T23:52:33.985Z,87.00
2019-01-05T23:55:09.925Z,86.90
2019-01-05T23:57:42.653Z,87.80
